createdAt,value
2022-10-05T00:01:27.069Z,88.47
2022-10-05T00:04:01.163Z,89.43
2022-10-05T00:06:31.137Z,89.40
2022-10-05T00:09:02.400Z,90.61
2022-10-05T00:11:30.406Z,90.59
2022-10-05T00:13:59.851Z,90.29
2022-10-05T00:16:27.903Z,89.83
2022-10-05T00:18:55.934Z,89.35
2022-10-05T00:21:26.252Z,88.72
2022-10-05T00:23:56.862Z,88.31
2022-10-05T00:26:27.735Z,88.11
2022-10-05T00:28:56.059Z,88.39
2022-10-05T00:31:26.566Z,89.11
2022-10-05T00:33:55.130Z,89.98
2022-10-05T00:36:23.769Z,89.75
2022-10-05T00:38:51.761Z,89.07
2022-10-05T00:41:25.977Z,89.12
2022-10-05T00:44:10.328Z,89.01
2022-10-05T00:46:51.555Z,89.13
2022-10-05T00:49:29.840Z,89.03
2022-10-05T00:52:07.619Z,89.57
2022-10-05T00:54:41.673Z,90.17
2022-10-05T00:57:24.903Z,89.41
2022-10-05T01:00:03.785Z,89.19
2022-10-05T01:02:42.134Z,89.11
2022-10-05T01:05:17.119Z,88.26
2022-10-05T01:07:51.033Z,87.85
2022-10-05T01:10:28.036Z,87.55
2022-10-05T01:13:05.969Z,86.67
2022-10-05T01:15:40.787Z,84.53
2022-10-05T01:18:17.112Z,85.50
2022-10-05T01:20:54.130Z,86.71
2022-10-05T01:23:58.908Z,87.26
2022-10-05T01:26:55.034Z,88.66
2022-10-05T01:29:28.944Z,89.28
2022-10-05T01:32:06.902Z,89.91
2022-10-05T01:34:39.648Z,90.08
2022-10-05T01:37:16.320Z,90.55
2022-10-05T01:39:51.549Z,90.64
2022-10-05T01:42:28.743Z,90.57
2022-10-05T01:45:06.202Z,90.66
2022-10-05T01:47:43.454Z,90.36
2022-10-05T01:50:20.751Z,90.66
2022-10-05T01:52:55.534Z,91.16
2022-10-05T01:55:32.535Z,91.10
2022-10-05T01:58:08.772Z,91.36
2022-10-05T02:00:46.408Z,91.51
2022-10-05T02:03:24.682Z,91.32
2022-10-05T02:05:57.678Z,91.18
2022-10-05T02:08:32.076Z,91.03
2022-10-05T02:11:04.758Z,90.95
2022-10-05T02:13:37.623Z,90.85
2022-10-05T02:16:15.204Z,90.76
2022-10-05T02:18:50.800Z,90.70
2022-10-05T02:21:20.986Z,90.47
2022-10-05T02:23:53.738Z,90.20
2022-10-05T02:26:23.541Z,90.06
2022-10-05T02:28:55.795Z,89.45
2022-10-05T02:31:31.807Z,89.01
2022-10-05T02:34:21.380Z,88.92
2022-10-05T02:36:54.792Z,89.26
2022-10-05T02:39:31.170Z,89.08
2022-10-05T02:42:08.583Z,89.11
2022-10-05T02:44:45.220Z,88.98
2022-10-05T02:47:27.982Z,88.50
2022-10-05T02:50:04.396Z,88.91
2022-10-05T02:52:41.445Z,89.18
2022-10-05T02:55:15.931Z,88.81
2022-10-05T02:57:52.130Z,88.41
2022-10-05T03:00:23.058Z,88.27
2022-10-05T03:03:01.103Z,87.59
2022-10-05T03:05:32.066Z,88.50
2022-10-05T03:08:04.841Z,88.29
2022-10-05T03:10:38.194Z,88.73
2022-10-05T03:13:14.046Z,88.78
2022-10-05T03:16:03.901Z,88.56
2022-10-05T03:18:46.195Z,88.78
2022-10-05T03:21:30.171Z,88.78
2022-10-05T03:24:17.897Z,88.88
2022-10-05T03:26:52.555Z,88.90
2022-10-05T03:29:30.263Z,89.61
2022-10-05T03:32:05.256Z,89.42
2022-10-05T03:34:38.943Z,88.23
2022-10-05T03:37:15.076Z,89.20
2022-10-05T03:39:48.116Z,88.93
2022-10-05T03:42:25.352Z,88.18
2022-10-05T03:45:02.812Z,88.26
2022-10-05T03:47:41.145Z,88.78
2022-10-05T03:50:38.211Z,87.89
2022-10-05T03:53:08.670Z,86.73
2022-10-05T03:55:40.688Z,87.01
2022-10-05T03:58:16.057Z,87.86
2022-10-05T04:00:48.249Z,88.43
2022-10-05T04:03:22.414Z,88.29
2022-10-05T04:05:56.319Z,89.27
2022-10-05T04:08:33.711Z,88.69
2022-10-05T04:11:07.172Z,88.38
2022-10-05T04:13:38.500Z,88.38
2022-10-05T04:16:13.991Z,88.89
2022-10-05T04:18:46.558Z,88.57
2022-10-05T04:21:23.958Z,88.54
2022-10-05T04:24:00.446Z,88.17
2022-10-05T04:26:35.119Z,88.05
2022-10-05T04:29:08.928Z,88.07
2022-10-05T04:31:53.386Z,88.99
2022-10-05T04:34:40.096Z,89.41
2022-10-05T04:37:11.082Z,89.51
2022-10-05T04:39:47.716Z,89.73
2022-10-05T04:42:25.659Z,89.81
2022-10-05T04:45:09.781Z,89.90
2022-10-05T04:48:17.232Z,90.11
2022-10-05T04:50:59.379Z,90.70
2022-10-05T04:53:33.070Z,90.11
2022-10-05T04:56:09.206Z,89.89
2022-10-05T04:58:53.861Z,89.63
2022-10-05T05:01:40.585Z,89.31
2022-10-05T05:04:33.432Z,88.24
2022-10-05T05:07:20.098Z,88.57
2022-10-05T05:10:13.622Z,89.18
2022-10-05T05:12:50.910Z,88.89
2022-10-05T05:15:30.239Z,89.96
2022-10-05T05:18:15.991Z,91.37
2022-10-05T05:20:56.088Z,91.71
2022-10-05T05:23:32.882Z,91.61
2022-10-05T05:26:12.873Z,91.23
2022-10-05T05:28:45.697Z,90.67
2022-10-05T05:31:24.762Z,90.37
2022-10-05T05:33:59.857Z,91.35
2022-10-05T05:36:49.923Z,91.00
2022-10-05T05:39:25.980Z,91.51
2022-10-05T05:42:03.263Z,91.63
2022-10-05T05:44:39.054Z,92.15
2022-10-05T05:47:19.999Z,92.78
2022-10-05T05:50:11.646Z,93.00
2022-10-05T05:52:44.225Z,92.67
2022-10-05T05:55:20.484Z,93.10
2022-10-05T05:57:56.650Z,93.18
2022-10-05T06:00:27.832Z,93.22
2022-10-05T06:03:07.541Z,93.70
2022-10-05T06:05:42.457Z,93.85
2022-10-05T06:08:18.094Z,93.72
2022-10-05T06:10:56.167Z,93.95
2022-10-05T06:13:30.062Z,94.08
2022-10-05T06:16:05.329Z,94.07
2022-10-05T06:18:34.060Z,94.31
2022-10-05T06:21:07.987Z,94.28
2022-10-05T06:23:45.360Z,94.38
2022-10-05T06:26:26.724Z,94.29
2022-10-05T06:29:00.322Z,94.29
2022-10-05T06:31:54.197Z,94.19
2022-10-05T06:34:40.015Z,94.13
2022-10-05T06:37:14.570Z,93.90
2022-10-05T06:40:00.949Z,93.64
2022-10-05T06:42:47.534Z,94.24
2022-10-05T06:45:46.532Z,93.96
2022-10-05T06:48:51.035Z,93.45
2022-10-05T06:51:41.475Z,92.97
2022-10-05T06:54:28.357Z,93.35
2022-10-05T06:57:04.167Z,93.54
2022-10-05T06:59:39.011Z,92.77
2022-10-05T07:02:20.098Z,92.37
2022-10-05T07:05:16.884Z,93.62
2022-10-05T07:07:54.840Z,93.63
2022-10-05T07:10:32.142Z,93.65
2022-10-05T07:13:30.707Z,93.09
2022-10-05T07:16:06.556Z,92.86
2022-10-05T07:18:48.139Z,92.87
2022-10-05T07:21:24.986Z,93.04
2022-10-05T07:24:03.774Z,92.11
2022-10-05T07:26:36.837Z,92.04
2022-10-05T07:29:20.935Z,92.13
2022-10-05T07:31:57.010Z,91.55
2022-10-05T07:34:37.941Z,90.10
2022-10-05T07:37:28.131Z,89.85
2022-10-05T07:40:05.814Z,88.99
2022-10-05T07:42:51.872Z,88.79
2022-10-05T07:45:29.491Z,89.00
2022-10-05T07:48:03.813Z,87.84
2022-10-05T07:50:39.766Z,86.42
2022-10-05T07:53:16.854Z,86.86
2022-10-05T07:55:51.273Z,85.66
2022-10-05T07:58:24.738Z,85.66
2022-10-05T08:01:02.935Z,84.39
2022-10-05T08:03:52.273Z,85.88
2022-10-05T08:06:35.948Z,85.70
2022-10-05T08:09:13.821Z,85.04
2022-10-05T08:11:54.571Z,84.80
2022-10-05T08:14:29.765Z,83.77
2022-10-05T08:17:01.417Z,82.24
2022-10-05T08:19:40.377Z,83.53
2022-10-05T08:22:13.935Z,82.92
2022-10-05T08:24:46.964Z,83.28
2022-10-05T08:27:21.458Z,80.15
2022-10-05T08:29:56.922Z,80.29
2022-10-05T08:32:26.884Z,79.79
2022-10-05T08:35:00.360Z,78.40
2022-10-05T08:37:32.665Z,79.87
2022-10-05T08:40:27.064Z,76.77
2022-10-05T08:43:07.161Z,78.59
2022-10-05T08:46:00.952Z,76.91
2022-10-05T08:48:56.359Z,77.21
2022-10-05T08:52:05.624Z,79.15
2022-10-05T08:54:46.816Z,76.60
2022-10-05T08:57:44.903Z,75.43
2022-10-05T09:00:15.225Z,73.22
2022-10-05T09:03:13.196Z,73.03
2022-10-05T09:06:02.706Z,73.49
2022-10-05T09:08:59.554Z,73.54
2022-10-05T09:11:36.238Z,75.56
2022-10-05T09:14:29.289Z,73.13
2022-10-05T09:17:35.903Z,74.85
2022-10-05T09:20:28.673Z,73.26
2022-10-05T09:23:04.183Z,73.98
2022-10-05T09:25:54.284Z,73.77
2022-10-05T09:28:30.493Z,71.77
2022-10-05T09:31:08.268Z,71.01
2022-10-05T09:34:04.512Z,72.58
2022-10-05T09:37:20.212Z,72.05
2022-10-05T09:40:20.745Z,71.03
2022-10-05T09:43:14.741Z,69.77
2022-10-05T09:46:04.587Z,69.82
2022-10-05T09:48:56.877Z,68.69
2022-10-05T09:52:01.199Z,66.25
2022-10-05T09:55:08.306Z,71.38
2022-10-05T09:58:03.616Z,69.55
2022-10-05T10:00:40.865Z,63.62
2022-10-05T10:03:44.392Z,72.01
2022-10-05T10:06:40.404Z,66.54
2022-10-05T10:09:35.158Z,62.16
2022-10-05T10:12:28.457Z,62.19
2022-10-05T10:15:18.498Z,62.12
2022-10-05T10:18:04.675Z,64.57
2022-10-05T10:20:39.866Z,63.03
2022-10-05T10:23:31.740Z,61.64
2022-10-05T10:26:34.076Z,63.47
2022-10-05T10:29:37.054Z,61.86
2022-10-05T10:32:20.938Z,62.52
2022-10-05T10:35:12.902Z,63.59
2022-10-05T10:38:22.331Z,63.85
2022-10-05T10:41:06.898Z,64.25
2022-10-05T10:44:18.156Z,61.99
2022-10-05T10:46:54.814Z,62.60
2022-10-05T10:49:47.912Z,64.92
2022-10-05T10:52:34.307Z,62.72
2022-10-05T10:55:28.479Z,60.22
2022-10-05T10:58:16.323Z,62.72
2022-10-05T11:00:54.686Z,61.91
2022-10-05T11:03:50.330Z,64.47
2022-10-05T11:07:06.703Z,59.47
2022-10-05T11:10:19.872Z,61.07
2022-10-05T11:13:24.790Z,61.11
2022-10-05T11:16:25.237Z,62.66
2022-10-05T11:19:12.198Z,57.77
2022-10-05T11:21:55.527Z,56.06
2022-10-05T11:24:50.587Z,60.59
2022-10-05T11:27:36.999Z,58.39
2022-10-05T11:30:37.012Z,56.65
2022-10-05T11:33:42.932Z,54.78
2022-10-05T11:36:32.623Z,59.06
2022-10-05T11:39:30.456Z,56.08
2022-10-05T11:42:16.500Z,55.76
2022-10-05T11:45:21.900Z,55.63
2022-10-05T11:48:10.934Z,57.11
2022-10-05T11:50:44.493Z,56.34
2022-10-05T11:53:17.105Z,55.75
2022-10-05T11:56:00.656Z,54.25
2022-10-05T11:58:33.176Z,55.84
2022-10-05T12:01:07.759Z,54.65
2022-10-05T12:03:49.270Z,54.49
2022-10-05T12:06:25.726Z,55.77
2022-10-05T12:09:04.767Z,56.52
2022-10-05T12:11:58.537Z,53.12
2022-10-05T12:14:38.234Z,54.09
2022-10-05T12:17:17.961Z,56.18
2022-10-05T12:19:52.446Z,54.52
2022-10-05T12:22:23.759Z,53.26
2022-10-05T12:25:06.653Z,56.82
2022-10-05T12:27:39.841Z,56.63
2022-10-05T12:30:15.958Z,57.05
2022-10-05T12:32:55.909Z,54.80
2022-10-05T12:35:50.185Z,54.51
2022-10-05T12:38:28.522Z,55.95
2022-10-05T12:41:04.311Z,54.86
2022-10-05T12:43:41.602Z,54.90
2022-10-05T12:46:20.678Z,58.18
2022-10-05T12:49:19.211Z,54.57
2022-10-05T12:51:57.035Z,55.21
2022-10-05T12:54:35.025Z,57.28
2022-10-05T12:57:08.422Z,54.92
2022-10-05T12:59:41.923Z,55.67
2022-10-05T13:02:21.721Z,55.94
2022-10-05T13:04:56.610Z,54.92
2022-10-05T13:07:41.912Z,55.34
2022-10-05T13:10:22.586Z,52.58
2022-10-05T13:12:56.818Z,53.99
2022-10-05T13:15:33.864Z,53.91
2022-10-05T13:18:14.018Z,55.74
2022-10-05T13:20:46.982Z,53.18
2022-10-05T13:23:22.797Z,54.11
2022-10-05T13:25:57.636Z,55.60
2022-10-05T13:28:31.213Z,55.34
2022-10-05T13:31:04.705Z,54.19
2022-10-05T13:33:54.395Z,53.96
2022-10-05T13:36:31.374Z,53.67
2022-10-05T13:39:06.134Z,52.98
2022-10-05T13:41:50.720Z,53.99
2022-10-05T13:44:26.944Z,53.35
2022-10-05T13:47:02.862Z,54.16
2022-10-05T13:49:38.005Z,54.23
2022-10-05T13:52:21.163Z,58.55
2022-10-05T13:54:59.900Z,56.48
2022-10-05T13:57:48.058Z,55.81
2022-10-05T14:00:22.696Z,54.37
2022-10-05T14:02:56.568Z,54.15
2022-10-05T14:05:27.011Z,55.26
2022-10-05T14:07:58.500Z,53.46
2022-10-05T14:10:35.262Z,55.16
2022-10-05T14:13:19.519Z,58.01
2022-10-05T14:16:04.898Z,58.62
2022-10-05T14:18:35.401Z,58.95
2022-10-05T14:21:16.461Z,57.13
2022-10-05T14:23:45.058Z,58.13
2022-10-05T14:26:32.630Z,58.72
2022-10-05T14:29:03.635Z,61.34
2022-10-05T14:31:58.301Z,59.69
2022-10-05T14:34:31.925Z,58.94
2022-10-05T14:37:04.820Z,57.43
2022-10-05T14:39:35.976Z,60.22
2022-10-05T14:42:17.906Z,59.42
2022-10-05T14:44:46.783Z,60.24
2022-10-05T14:47:26.614Z,60.38
2022-10-05T14:50:14.008Z,58.55
2022-10-05T14:52:51.859Z,60.23
2022-10-05T14:55:37.394Z,62.12
2022-10-05T14:58:18.068Z,60.69
2022-10-05T15:00:56.997Z,62.14
2022-10-05T15:03:38.261Z,62.95
2022-10-05T15:06:13.846Z,63.28
2022-10-05T15:08:54.141Z,63.42
2022-10-05T15:11:34.523Z,64.17
2022-10-05T15:14:14.052Z,64.07
2022-10-05T15:16:42.897Z,63.92
2022-10-05T15:19:17.919Z,65.20
2022-10-05T15:22:03.719Z,64.23
2022-10-05T15:24:43.758Z,65.30
2022-10-05T15:27:26.286Z,64.01
2022-10-05T15:30:04.882Z,65.59
2022-10-05T15:32:44.769Z,65.26
2022-10-05T15:35:43.943Z,66.05
2022-10-05T15:38:23.765Z,66.59
2022-10-05T15:41:02.642Z,66.53
2022-10-05T15:43:47.083Z,67.24
2022-10-05T15:46:23.348Z,68.01
2022-10-05T15:49:04.114Z,68.59
2022-10-05T15:51:50.250Z,68.03
2022-10-05T15:54:42.606Z,68.09
2022-10-05T15:57:20.445Z,68.54
2022-10-05T15:59:59.413Z,69.38
2022-10-05T16:02:38.837Z,68.60
2022-10-05T16:05:43.923Z,68.71
2022-10-05T16:08:41.375Z,69.49
2022-10-05T16:11:19.277Z,69.17
2022-10-05T16:13:59.768Z,69.71
2022-10-05T16:16:35.158Z,70.14
2022-10-05T16:19:12.671Z,70.54
2022-10-05T16:21:52.995Z,70.56
2022-10-05T16:24:42.567Z,70.45
2022-10-05T16:27:17.357Z,70.26
2022-10-05T16:29:52.870Z,69.60
2022-10-05T16:32:24.424Z,69.66
2022-10-05T16:35:03.985Z,70.57
2022-10-05T16:37:44.375Z,71.19
2022-10-05T16:40:19.326Z,70.59
2022-10-05T16:42:58.612Z,71.14
2022-10-05T16:45:44.965Z,70.94
2022-10-05T16:48:21.080Z,70.68
2022-10-05T16:50:55.655Z,70.94
2022-10-05T16:53:28.292Z,72.44
2022-10-05T16:56:02.948Z,72.50
2022-10-05T16:58:44.656Z,72.79
2022-10-05T17:01:24.473Z,72.43
2022-10-05T17:04:10.478Z,72.51
2022-10-05T17:06:54.167Z,71.78
2022-10-05T17:09:42.011Z,72.48
2022-10-05T17:12:30.338Z,74.72
2022-10-05T17:15:29.727Z,74.10
2022-10-05T17:18:24.826Z,74.71
2022-10-05T17:20:59.063Z,74.81
2022-10-05T17:23:51.718Z,73.91
2022-10-05T17:26:45.375Z,75.34
2022-10-05T17:29:18.625Z,75.92
2022-10-05T17:32:10.833Z,75.14
2022-10-05T17:34:40.617Z,74.81
2022-10-05T17:37:35.259Z,74.69
2022-10-05T17:41:06.495Z,75.30
2022-10-05T17:43:36.036Z,75.22
2022-10-05T17:46:06.781Z,77.20
2022-10-05T17:49:08.350Z,76.59
2022-10-05T17:52:16.860Z,75.92
2022-10-05T17:55:30.241Z,75.56
2022-10-05T17:58:04.041Z,75.58
2022-10-05T18:00:42.099Z,77.92
2022-10-05T18:03:36.447Z,78.45
2022-10-05T18:06:31.910Z,78.66
2022-10-05T18:09:21.959Z,79.17
2022-10-05T18:12:25.356Z,78.95
2022-10-05T18:15:22.312Z,79.58
2022-10-05T18:17:54.707Z,79.21
2022-10-05T18:20:31.603Z,79.05
2022-10-05T18:23:35.901Z,79.46
2022-10-05T18:26:09.211Z,79.27
2022-10-05T18:28:54.101Z,78.64
2022-10-05T18:31:34.259Z,79.63
2022-10-05T18:34:23.072Z,80.45
2022-10-05T18:37:01.915Z,80.37
2022-10-05T18:39:53.052Z,80.52
2022-10-05T18:42:31.402Z,81.21
2022-10-05T18:45:09.296Z,80.36
2022-10-05T18:47:48.130Z,80.24
2022-10-05T18:50:26.884Z,80.98
2022-10-05T18:53:07.796Z,81.23
2022-10-05T18:55:39.639Z,81.44
2022-10-05T18:58:18.076Z,80.82
2022-10-05T19:01:00.043Z,80.86
2022-10-05T19:03:36.643Z,82.08
2022-10-05T19:06:15.491Z,82.10
2022-10-05T19:08:53.041Z,82.47
2022-10-05T19:11:30.192Z,82.52
2022-10-05T19:14:04.774Z,83.24
2022-10-05T19:16:48.554Z,82.47
2022-10-05T19:19:35.079Z,82.35
2022-10-05T19:22:09.065Z,82.06
2022-10-05T19:24:50.848Z,82.51
2022-10-05T19:27:28.186Z,83.19
2022-10-05T19:30:14.787Z,83.00
2022-10-05T19:33:08.450Z,83.61
2022-10-05T19:35:53.759Z,83.52
2022-10-05T19:38:31.801Z,83.92
2022-10-05T19:41:11.387Z,84.68
2022-10-05T19:44:02.267Z,84.48
2022-10-05T19:46:54.728Z,84.31
2022-10-05T19:49:59.123Z,83.63
2022-10-05T19:52:37.765Z,83.59
2022-10-05T19:55:16.057Z,84.01
2022-10-05T19:57:48.798Z,84.37
2022-10-05T20:00:22.397Z,83.81
2022-10-05T20:03:10.319Z,83.10
2022-10-05T20:05:38.584Z,81.97
2022-10-05T20:08:08.526Z,83.71
2022-10-05T20:10:36.763Z,84.08
2022-10-05T20:13:08.717Z,84.19
2022-10-05T20:15:55.082Z,83.97
2022-10-05T20:19:06.729Z,83.72
2022-10-05T20:21:43.864Z,84.54
2022-10-05T20:24:14.797Z,84.25
2022-10-05T20:27:05.219Z,83.88
2022-10-05T20:29:36.551Z,83.56
2022-10-05T20:32:08.724Z,83.83
2022-10-05T20:34:38.056Z,85.47
2022-10-05T20:37:06.035Z,84.10
2022-10-05T20:39:35.418Z,84.95
2022-10-05T20:42:03.823Z,83.01
2022-10-05T20:44:32.321Z,84.51
2022-10-05T20:47:01.501Z,85.03
2022-10-05T20:49:31.082Z,84.48
2022-10-05T20:52:00.093Z,83.95
2022-10-05T20:54:28.611Z,83.79
2022-10-05T20:56:58.380Z,83.29
2022-10-05T20:59:26.949Z,84.53
2022-10-05T21:01:55.746Z,84.72
2022-10-05T21:04:25.336Z,84.87
2022-10-05T21:06:54.282Z,84.33
2022-10-05T21:09:22.904Z,84.04
2022-10-05T21:11:52.989Z,84.33
2022-10-05T21:14:23.477Z,85.02
2022-10-05T21:16:52.564Z,84.83
2022-10-05T21:19:20.763Z,85.49
2022-10-05T21:21:48.789Z,86.21
2022-10-05T21:24:17.390Z,85.84
2022-10-05T21:26:46.032Z,85.07
2022-10-05T21:29:14.283Z,83.98
2022-10-05T21:31:43.690Z,85.37
2022-10-05T21:34:11.852Z,84.95
2022-10-05T21:36:40.093Z,84.73
2022-10-05T21:39:08.143Z,86.10
2022-10-05T21:41:36.154Z,86.81
2022-10-05T21:44:06.331Z,86.56
2022-10-05T21:46:37.243Z,86.93
2022-10-05T21:49:07.326Z,86.61
2022-10-05T21:51:36.639Z,87.01
2022-10-05T21:54:10.370Z,87.50
2022-10-05T21:56:41.576Z,86.92
2022-10-05T21:59:12.787Z,86.69
2022-10-05T22:01:41.081Z,85.84
2022-10-05T22:04:10.536Z,84.44
2022-10-05T22:06:38.797Z,84.20
2022-10-05T22:09:07.329Z,84.31
2022-10-05T22:11:35.513Z,85.07
2022-10-05T22:14:03.584Z,85.55
2022-10-05T22:16:33.469Z,86.48
2022-10-05T22:19:05.204Z,86.76
2022-10-05T22:21:37.945Z,86.68
2022-10-05T22:24:06.719Z,85.33
2022-10-05T22:26:36.025Z,86.62
2022-10-05T22:29:04.873Z,86.99
2022-10-05T22:31:32.955Z,87.58
2022-10-05T22:34:01.014Z,87.34
2022-10-05T22:36:29.465Z,86.93
2022-10-05T22:38:58.854Z,86.57
2022-10-05T22:41:27.055Z,86.06
2022-10-05T22:43:55.001Z,86.92
2022-10-05T22:46:23.074Z,85.79
2022-10-05T22:48:51.334Z,86.87
2022-10-05T22:51:19.554Z,86.92
2022-10-05T22:53:47.531Z,87.73
2022-10-05T22:56:17.335Z,88.28
2022-10-05T22:58:45.872Z,88.49
2022-10-05T23:01:16.801Z,88.71
2022-10-05T23:03:45.580Z,88.70
2022-10-05T23:06:15.645Z,85.40
2022-10-05T23:08:44.304Z,86.70
2022-10-05T23:11:15.068Z,87.32
2022-10-05T23:13:45.047Z,88.83
2022-10-05T23:16:15.415Z,88.89
2022-10-05T23:18:44.259Z,88.96
2022-10-05T23:21:12.731Z,89.17
2022-10-05T23:23:42.672Z,89.05
2022-10-05T23:26:12.459Z,90.51
2022-10-05T23:28:43.115Z,89.85
2022-10-05T23:31:12.703Z,90.55
2022-10-05T23:33:40.730Z,90.42
2022-10-05T23:36:11.155Z,90.13
2022-10-05T23:38:39.130Z,89.51
2022-10-05T23:41:08.764Z,89.74
2022-10-05T23:43:37.337Z,89.76
2022-10-05T23:46:07.253Z,89.55
2022-10-05T23:48:38.692Z,88.97
2022-10-05T23:51:07.853Z,89.03
2022-10-05T23:53:36.361Z,89.15
2022-10-05T23:56:05.015Z,89.24
2022-10-05T23:58:33.104Z,88.38
